Time;durP1;ratioP1;P1;durP2;ratioP2;P2;SDS_P1;SDS_P2;PMS_P1;PMS_P2;Temp;Humidity;BMP_temperature;BMP_pressure;BME280_temperature;BME280_humidity;BME280_pressure;Samples;Min_cycle;Max_cycle;Signal;HPM_P1;HPM_P2
2024/03/21 00:00:30;;;;;;;1.25;1.00;;;12.00;99.90;;;;;;4448749;32;20101;-65
2024/03/21 00:02:56;;;;;;;2.03;1.75;;;12.10;99.90;;;;;;4449346;32;20123;-65
2024/03/21 00:05:22;;;;;;;1.15;0.93;;;12.10;99.90;;;;;;4449082;32;20190;-67
2024/03/21 00:07:48;;;;;;;3.92;1.50;;;12.10;99.90;;;;;;4448119;32;20088;-67
2024/03/21 00:10:16;;;;;;;1.08;1.02;;;12.10;99.90;;;;;;4440918;32;20085;-66
2024/03/21 00:12:41;;;;;;;1.12;0.77;;;12.10;99.90;;;;;;4448606;32;20548;-65
2024/03/21 00:15:08;;;;;;;0.75;0.75;;;12.00;99.90;;;;;;4449698;32;20124;-63
2024/03/21 00:17:34;;;;;;;0.70;0.70;;;12.00;99.90;;;;;;4450958;32;20544;-65
2024/03/21 00:20:02;;;;;;;1.50;0.98;;;12.10;99.90;;;;;;4452607;32;20466;-64
2024/03/21 00:22:27;;;;;;;0.70;0.65;;;12.10;99.90;;;;;;4452597;32;20084;-65
2024/03/21 00:24:53;;;;;;;1.45;0.77;;;12.00;99.90;;;;;;4451518;32;20096;-65
2024/03/21 00:27:19;;;;;;;0.47;0.47;;;12.00;99.90;;;;;;4450244;32;20089;-64
2024/03/21 00:29:44;;;;;;;3.20;1.00;;;12.00;99.90;;;;;;4448616;32;20076;-65
2024/03/21 00:32:10;;;;;;;0.57;0.57;;;12.00;99.90;;;;;;4443534;32;20080;-64
2024/03/21 00:34:36;;;;;;;0.60;0.60;;;12.10;99.90;;;;;;4451891;32;21175;-64
2024/03/21 00:37:01;;;;;;;1.62;1.08;;;12.20;99.90;;;;;;4449896;32;20784;-63
2024/03/21 00:39:27;;;;;;;1.15;1.05;;;12.20;99.90;;;;;;4450801;32;20143;-64
2024/03/21 00:41:53;;;;;;;0.85;0.80;;;12.30;99.90;;;;;;4449899;32;20093;-64
2024/03/21 00:44:19;;;;;;;2.87;1.15;;;12.30;99.90;;;;;;4448337;32;20536;-65
2024/03/21 00:46:44;;;;;;;1.33;0.80;;;12.30;99.90;;;;;;4451375;32;20123;-64
2024/03/21 00:49:10;;;;;;;1.37;0.85;;;12.40;99.90;;;;;;4451543;32;20091;-64
2024/03/21 00:51:39;;;;;;;1.55;0.93;;;12.40;99.90;;;;;;4451240;32;20076;-64
2024/03/21 00:54:05;;;;;;;1.23;0.95;;;12.40;99.90;;;;;;4449276;32;20100;-63
2024/03/21 00:56:31;;;;;;;1.20;1.08;;;12.40;99.90;;;;;;4449883;32;20085;-63
2024/03/21 00:58:58;;;;;;;1.00;0.95;;;12.50;99.90;;;;;;4449579;32;20081;-61
2024/03/21 01:01:26;;;;;;;2.78;1.35;;;12.50;99.90;;;;;;4440607;32;20080;-66
2024/03/21 01:03:52;;;;;;;1.05;0.73;;;12.50;99.90;;;;;;4448408;32;20092;-67
2024/03/21 01:06:17;;;;;;;2.17;1.40;;;12.50;99.90;;;;;;4446485;32;21870;-66
2024/03/21 01:08:43;;;;;;;2.58;1.30;;;12.40;99.90;;;;;;4448096;32;20167;-66
2024/03/21 01:11:09;;;;;;;2.35;0.85;;;12.50;99.90;;;;;;4436535;32;20064;-66
2024/03/21 01:13:35;;;;;;;1.80;0.90;;;12.60;99.90;;;;;;4443112;32;20064;-66
2024/03/21 01:16:00;;;;;;;5.03;1.65;;;12.50;99.90;;;;;;4447613;32;20080;-66
2024/03/21 01:18:34;;;;;;;0.93;0.90;;;12.60;99.90;;;;;;4446996;32;20426;-66
2024/03/21 01:21:02;;;;;;;1.58;1.23;;;12.60;99.90;;;;;;4448345;32;20166;-66
2024/03/21 01:23:28;;;;;;;0.93;0.93;;;12.60;99.90;;;;;;4446318;32;20506;-66
2024/03/21 01:25:53;;;;;;;2.30;1.12;;;12.50;99.90;;;;;;4446826;32;21981;-66
2024/03/21 01:28:18;;;;;;;2.25;0.90;;;12.50;99.90;;;;;;4446160;32;20138;-66
2024/03/21 01:30:44;;;;;;;0.95;0.90;;;12.40;99.90;;;;;;4446855;32;20149;-66
2024/03/21 01:33:09;;;;;;;0.82;0.82;;;12.30;99.90;;;;;;4446318;32;20582;-66
2024/03/21 01:35:35;;;;;;;3.95;1.05;;;12.20;99.90;;;;;;4445839;32;20143;-66
2024/03/21 01:38:00;;;;;;;1.17;0.90;;;12.30;99.90;;;;;;4447685;32;20072;-67
2024/03/21 01:40:26;;;;;;;1.10;1.00;;;12.30;99.90;;;;;;4445211;32;20081;-67
2024/03/21 01:42:52;;;;;;;1.90;1.35;;;12.30;99.90;;;;;;4446174;32;20088;-67
2024/03/21 01:45:18;;;;;;;1.12;0.73;;;12.30;99.90;;;;;;4446846;32;20073;-67
2024/03/21 01:47:43;;;;;;;0.60;0.60;;;12.40;99.90;;;;;;4431682;32;20414;-67
2024/03/21 01:50:09;;;;;;;4.25;1.30;;;12.30;99.90;;;;;;4447720;32;20671;-66
2024/03/21 01:52:36;;;;;;;2.60;1.17;;;12.30;99.90;;;;;;4440659;32;20097;-66
2024/03/21 01:55:01;;;;;;;0.80;0.80;;;12.30;99.90;;;;;;4440334;32;20548;-67
2024/03/21 01:57:27;;;;;;;1.40;0.77;;;12.20;99.90;;;;;;4446728;32;20080;-66
2024/03/21 01:59:56;;;;;;;1.92;1.02;;;12.20;99.90;;;;;;4447447;32;20461;-65
2024/03/21 02:02:23;;;;;;;3.30;1.33;;;12.20;99.90;;;;;;4446030;32;20069;-66
2024/03/21 02:04:49;;;;;;;1.25;0.75;;;12.20;99.90;;;;;;4448770;32;20069;-67
2024/03/21 02:07:18;;;;;;;1.27;1.15;;;12.10;99.90;;;;;;4447704;32;20080;-66
2024/03/21 02:09:44;;;;;;;1.35;0.98;;;12.10;99.90;;;;;;4448018;32;20072;-67
2024/03/21 02:12:09;;;;;;;1.15;0.85;;;12.00;99.90;;;;;;4448352;32;20076;-66
2024/03/21 02:14:37;;;;;;;6.15;0.70;;;11.90;99.90;;;;;;4446099;32;20093;-67
2024/03/21 02:17:03;;;;;;;1.58;1.25;;;11.80;99.90;;;;;;4439620;32;20068;-66
2024/03/21 02:19:30;;;;;;;1.50;0.88;;;11.80;99.90;;;;;;4439960;32;20126;-65
2024/03/21 02:22:55;;;;;;;0.98;0.90;;;11.80;99.90;;;;;;4447175;32;20089;-67
2024/03/21 02:24:41;;;;;;;0.57;0.55;;;11.80;99.90;;;;;;4438455;32;20081;-66
2024/03/21 02:27:06;;;;;;;1.40;0.90;;;11.80;99.90;;;;;;4444548;32;20098;-67
2024/03/21 02:29:32;;;;;;;1.52;1.12;;;11.80;99.90;;;;;;4436818;32;20084;-67
2024/03/21 02:31:58;;;;;;;2.72;1.33;;;11.60;99.90;;;;;;4446830;32;20076;-65
2024/03/21 02:34:24;;;;;;;2.53;0.98;;;11.50;99.90;;;;;;4446250;32;20483;-65
2024/03/21 02:36:49;;;;;;;1.62;1.20;;;11.60;99.90;;;;;;4445520;32;20105;-65
2024/03/21 02:39:15;;;;;;;1.00;0.70;;;11.70;99.90;;;;;;4445599;32;21027;-65
2024/03/21 02:41:41;;;;;;;2.03;1.05;;;11.70;99.90;;;;;;4442039;32;20080;-65
2024/03/21 02:44:06;;;;;;;1.20;0.88;;;11.50;99.90;;;;;;4445319;32;20132;-67
2024/03/21 02:46:32;;;;;;;0.65;0.60;;;11.40;99.90;;;;;;4446480;32;20076;-65
2024/03/21 02:48:57;;;;;;;0.45;0.45;;;11.30;99.90;;;;;;4446894;32;20080;-65
2024/03/21 02:51:23;;;;;;;2.50;1.35;;;11.10;99.90;;;;;;4446987;32;20093;-67
2024/03/21 02:53:50;;;;;;;4.20;2.53;;;11.10;99.90;;;;;;4446047;32;20143;-65
2024/03/21 02:56:16;;;;;;;1.25;0.90;;;11.00;99.90;;;;;;4447737;32;20076;-65
2024/03/21 02:58:42;;;;;;;1.42;0.88;;;11.00;99.90;;;;;;4448245;32;20072;-64
2024/03/21 03:01:07;;;;;;;0.85;0.85;;;11.10;99.90;;;;;;4450112;32;20080;-65
2024/03/21 03:03:33;;;;;;;5.43;2.22;;;11.20;99.90;;;;;;4449974;32;20174;-65
2024/03/21 03:05:58;;;;;;;3.45;0.98;;;11.30;99.90;;;;;;4449371;32;20092;-67
2024/03/21 03:08:24;;;;;;;5.87;1.52;;;11.20;99.90;;;;;;4449208;32;20113;-65
2024/03/21 03:10:49;;;;;;;0.82;0.73;;;11.20;99.90;;;;;;4449036;32;20080;-68
2024/03/21 03:13:14;;;;;;;1.50;0.88;;;11.10;99.90;;;;;;4450304;32;20118;-64
2024/03/21 03:15:40;;;;;;;1.08;0.90;;;11.10;99.90;;;;;;4449484;32;20145;-67
2024/03/21 03:18:05;;;;;;;2.75;1.17;;;11.20;99.90;;;;;;4450817;32;20088;-66
2024/03/21 03:20:31;;;;;;;2.03;1.12;;;11.20;99.90;;;;;;4450642;32;20080;-64
2024/03/21 03:22:57;;;;;;;5.37;2.65;;;11.20;99.90;;;;;;4449639;32;20126;-64
2024/03/21 03:25:22;;;;;;;2.58;1.00;;;11.10;99.90;;;;;;4443078;32;20072;-63
2024/03/21 03:27:49;;;;;;;0.68;0.68;;;11.20;99.90;;;;;;4449479;32;20073;-63
2024/03/21 03:30:15;;;;;;;2.58;1.12;;;11.10;99.90;;;;;;4449723;32;20430;-64
2024/03/21 03:32:47;;;;;;;1.37;1.02;;;10.90;99.90;;;;;;4449192;32;20130;-62
2024/03/21 03:35:45;;;;;;;2.03;1.05;;;10.70;99.90;;;;;;4450535;32;20101;-63
2024/03/21 03:37:59;;;;;;;1.25;1.00;;;10.70;99.90;;;;;;4442122;32;20126;-64
2024/03/21 03:40:25;;;;;;;3.95;1.60;;;10.70;99.90;;;;;;4448371;32;20512;-63
2024/03/21 03:42:50;;;;;;;1.05;0.90;;;10.80;99.90;;;;;;4450269;32;20082;-64
2024/03/21 03:45:16;;;;;;;2.05;1.50;;;10.80;99.90;;;;;;4450543;32;20134;-62
2024/03/21 03:47:41;;;;;;;1.15;1.05;;;10.60;99.90;;;;;;4451359;32;20123;-63
2024/03/21 03:50:07;;;;;;;0.60;0.60;;;10.50;99.90;;;;;;4449683;32;20073;-66
2024/03/21 03:52:32;;;;;;;2.20;1.17;;;10.40;99.90;;;;;;4450149;32;20088;-65
2024/03/21 03:54:58;;;;;;;3.45;1.70;;;10.50;99.90;;;;;;4449306;32;20596;-63
2024/03/21 03:57:25;;;;;;;1.20;1.05;;;10.40;99.90;;;;;;4450834;32;20147;-63
2024/03/21 03:59:51;;;;;;;3.95;1.50;;;10.30;99.90;;;;;;4450226;32;20572;-64
2024/03/21 04:02:16;;;;;;;4.30;1.23;;;10.30;99.90;;;;;;4448930;32;20073;-65
2024/03/21 04:04:42;;;;;;;31.20;1.50;;;10.30;99.90;;;;;;4449659;32;20510;-64
2024/03/21 04:07:08;;;;;;;0.90;0.80;;;10.30;99.90;;;;;;4449969;32;20088;-65
2024/03/21 04:09:33;;;;;;;1.10;1.05;;;10.30;99.90;;;;;;4451048;32;20060;-65
2024/03/21 04:11:59;;;;;;;2.22;1.12;;;10.30;99.90;;;;;;4448927;32;20065;-63
2024/03/21 04:14:24;;;;;;;13.57;1.17;;;10.30;99.90;;;;;;4449639;32;20135;-64
2024/03/21 04:16:50;;;;;;;2.78;1.23;;;10.20;99.90;;;;;;4450180;32;20087;-63
2024/03/21 04:19:16;;;;;;;3.00;2.22;;;10.20;99.90;;;;;;4449422;32;20551;-64
2024/03/21 04:21:42;;;;;;;1.37;0.95;;;10.20;99.90;;;;;;4450431;32;20065;-63
2024/03/21 04:24:07;;;;;;;3.15;0.82;;;10.20;99.90;;;;;;4449606;32;20084;-64
2024/03/21 04:26:33;;;;;;;0.60;0.60;;;10.20;99.90;;;;;;4448401;32;20076;-64
2024/03/21 04:28:58;;;;;;;1.25;0.60;;;10.30;99.90;;;;;;4448761;32;20128;-64
2024/03/21 04:31:24;;;;;;;2.95;1.17;;;10.40;99.90;;;;;;4449109;32;20084;-66
2024/03/21 04:33:49;;;;;;;6.60;0.80;;;10.50;99.90;;;;;;4447032;32;20651;-66
2024/03/21 04:36:15;;;;;;;2.05;0.80;;;10.50;99.90;;;;;;4447120;32;20081;-66
2024/03/21 04:38:40;;;;;;;5.12;2.20;;;10.50;99.90;;;;;;4448204;32;20064;-65
2024/03/21 04:41:06;;;;;;;0.55;0.55;;;10.50;99.90;;;;;;4446932;32;20069;-66
2024/03/21 04:43:31;;;;;;;0.68;0.68;;;10.40;99.90;;;;;;4448024;32;20139;-66
2024/03/21 04:45:59;;;;;;;1.35;0.80;;;10.40;99.90;;;;;;4439972;32;20149;-66
2024/03/21 04:48:24;;;;;;;3.25;1.40;;;10.30;99.90;;;;;;4448236;32;20080;-65
2024/03/21 04:50:49;;;;;;;0.88;0.73;;;10.20;99.90;;;;;;4448616;32;20093;-66
2024/03/21 04:53:15;;;;;;;2.35;1.10;;;10.10;99.90;;;;;;4449788;32;20134;-66
2024/03/21 04:55:41;;;;;;;0.93;0.88;;;10.00;99.90;;;;;;4450084;32;20131;-66
2024/03/21 04:58:06;;;;;;;0.68;0.68;;;10.00;99.90;;;;;;4445881;32;20141;-65
2024/03/21 05:00:32;;;;;;;1.58;0.75;;;10.00;99.90;;;;;;4449877;32;20163;-65
2024/03/21 05:02:57;;;;;;;2.97;1.37;;;10.00;99.90;;;;;;4448364;32;20540;-66
2024/03/21 05:05:23;;;;;;;0.80;0.80;;;9.90;99.90;;;;;;4449426;32;20056;-65
2024/03/21 05:07:48;;;;;;;5.15;1.15;;;9.80;99.90;;;;;;4451221;32;20154;-66
2024/03/21 05:10:15;;;;;;;5.47;1.33;;;9.90;99.90;;;;;;4450740;32;20563;-66
2024/03/21 05:12:40;;;;;;;0.82;0.82;;;9.80;99.90;;;;;;4449416;32;20092;-65
2024/03/21 05:15:06;;;;;;;3.75;1.40;;;9.70;99.90;;;;;;4449720;32;20131;-64
2024/03/21 05:17:31;;;;;;;3.10;1.40;;;9.70;99.90;;;;;;4448153;32;20061;-65
2024/03/21 05:19:57;;;;;;;5.30;1.12;;;9.70;99.90;;;;;;4451039;32;20073;-66
2024/03/21 05:22:22;;;;;;;0.45;0.45;;;9.70;99.90;;;;;;4441751;32;20138;-65
2024/03/21 05:24:48;;;;;;;1.98;1.42;;;9.70;99.90;;;;;;4446434;32;20083;-65
2024/03/21 05:27:15;;;;;;;1.55;0.98;;;9.70;99.90;;;;;;4448266;32;20126;-65
2024/03/21 05:29:43;;;;;;;1.17;1.10;;;9.70;99.90;;;;;;4448106;32;20120;-65
2024/03/21 05:32:08;;;;;;;0.70;0.70;;;9.70;99.90;;;;;;4447839;32;20081;-65
2024/03/21 05:34:34;;;;;;;4.22;0.77;;;9.70;99.90;;;;;;4447919;32;20088;-65
2024/03/21 05:37:00;;;;;;;1.27;0.95;;;9.70;99.90;;;;;;4438712;32;20091;-65
2024/03/21 05:39:26;;;;;;;1.85;1.12;;;9.70;99.90;;;;;;4449353;32;20080;-65
2024/03/21 05:41:52;;;;;;;1.05;0.95;;;9.70;99.90;;;;;;4450202;32;20077;-64
2024/03/21 05:44:17;;;;;;;1.77;1.02;;;9.60;99.90;;;;;;4447959;32;21160;-65
2024/03/21 05:46:43;;;;;;;4.62;1.27;;;9.60;99.90;;;;;;4450467;32;20096;-62
2024/03/21 05:49:10;;;;;;;1.08;0.98;;;9.60;99.90;;;;;;4452053;32;20097;-63
2024/03/21 05:51:36;;;;;;;2.00;1.33;;;9.60;99.90;;;;;;4446640;32;20632;-63
2024/03/21 05:54:05;;;;;;;1.77;1.27;;;9.70;99.90;;;;;;4447549;32;20376;-63
2024/03/21 05:56:31;;;;;;;1.12;0.90;;;9.70;99.90;;;;;;4448784;32;20137;-62
2024/03/21 05:58:56;;;;;;;1.02;0.85;;;9.70;99.90;;;;;;4449606;32;20116;-63
2024/03/21 06:01:22;;;;;;;1.12;0.82;;;9.70;99.90;;;;;;4448809;32;20065;-63
2024/03/21 06:03:48;;;;;;;2.65;1.85;;;9.70;99.90;;;;;;4448239;32;20072;-64
2024/03/21 06:06:14;;;;;;;2.95;1.55;;;9.80;99.90;;;;;;4438744;32;20583;-64
2024/03/21 06:08:40;;;;;;;1.12;0.57;;;9.80;99.90;;;;;;4447423;32;20068;-63
2024/03/21 06:11:07;;;;;;;0.57;0.57;;;9.80;99.90;;;;;;4448518;32;20081;-64
2024/03/21 06:13:33;;;;;;;1.92;1.20;;;9.80;99.90;;;;;;4437192;32;20764;-63
2024/03/21 06:16:00;;;;;;;8.27;1.30;;;9.90;99.90;;;;;;4445573;32;20155;-62
2024/03/21 06:18:27;;;;;;;2.17;1.17;;;9.90;99.90;;;;;;4446818;32;20088;-64
2024/03/21 06:20:52;;;;;;;2.60;1.45;;;9.90;99.90;;;;;;4434683;32;20165;-63
2024/03/21 06:23:20;;;;;;;0.90;0.90;;;9.90;99.90;;;;;;4441825;32;20477;-63
2024/03/21 06:25:45;;;;;;;8.13;1.23;;;9.90;99.90;;;;;;4429706;32;20100;-63
2024/03/21 06:28:11;;;;;;;1.73;1.20;;;10.00;99.90;;;;;;4426421;32;20442;-62
2024/03/21 06:30:37;;;;;;;2.08;0.70;;;10.00;99.90;;;;;;4441957;32;20088;-62
2024/03/21 06:33:03;;;;;;;1.35;0.77;;;10.00;99.90;;;;;;4436188;32;20091;-64
2024/03/21 06:35:30;;;;;;;1.08;0.93;;;10.20;99.90;;;;;;4432898;32;20758;-63
2024/03/21 06:37:57;;;;;;;0.60;0.60;;;10.10;99.90;;;;;;4434754;32;20081;-64
2024/03/21 06:40:24;;;;;;;7.30;1.15;;;10.10;99.90;;;;;;4440562;32;20121;-63
2024/03/21 06:42:50;;;;;;;4.32;1.45;;;10.20;99.90;;;;;;4434913;32;20195;-64
2024/03/21 06:45:16;;;;;;;6.32;1.50;;;10.20;99.90;;;;;;4428029;32;20152;-65
2024/03/21 06:47:46;;;;;;;8.95;1.52;;;10.20;99.90;;;;;;4431883;32;20138;-63
2024/03/21 06:50:16;;;;;;;0.82;0.82;;;10.40;99.90;;;;;;4425806;32;20282;-66
2024/03/21 06:52:44;;;;;;;13.48;1.55;;;10.40;99.90;;;;;;4424853;32;20088;-66
2024/03/21 06:55:11;;;;;;;3.17;1.08;;;10.30;99.90;;;;;;4420009;32;20101;-64
2024/03/21 06:57:36;;;;;;;0.80;0.80;;;10.40;99.90;;;;;;4405070;32;20109;-66
2024/03/21 07:00:04;;;;;;;2.22;1.30;;;10.40;99.90;;;;;;4398951;32;20218;-65
2024/03/21 07:02:29;;;;;;;1.20;1.08;;;10.40;99.90;;;;;;4401059;32;21232;-65
2024/03/21 07:04:55;;;;;;;1.30;0.90;;;10.50;99.90;;;;;;4403265;32;21347;-66
2024/03/21 07:07:21;;;;;;;4.68;1.80;;;10.50;99.90;;;;;;4403015;32;20509;-66
2024/03/21 07:09:47;;;;;;;1.98;1.08;;;10.50;99.90;;;;;;4412923;32;20145;-66
2024/03/21 07:12:13;;;;;;;1.02;0.80;;;10.60;99.90;;;;;;4420214;32;20159;-66
2024/03/21 07:14:38;;;;;;;1.00;0.90;;;10.60;99.90;;;;;;4418622;32;20203;-65
2024/03/21 07:17:04;;;;;;;2.45;1.50;;;10.60;99.90;;;;;;4422182;32;20084;-65
2024/03/21 07:19:33;;;;;;;1.15;1.08;;;10.60;99.90;;;;;;4416509;32;20488;-66
2024/03/21 07:22:01;;;;;;;1.23;1.08;;;10.60;99.90;;;;;;4425612;32;20096;-64
2024/03/21 07:24:27;;;;;;;2.08;1.00;;;10.50;99.90;;;;;;4425981;32;20089;-64
2024/03/21 07:26:53;;;;;;;1.52;0.90;;;10.60;99.90;;;;;;4413297;32;20793;-65
2024/03/21 07:29:18;;;;;;;4.95;1.67;;;10.60;99.90;;;;;;4425434;32;20127;-64
2024/03/21 07:31:44;;;;;;;2.33;1.05;;;10.50;99.90;;;;;;4418353;32;20216;-65
2024/03/21 07:34:09;;;;;;;1.85;1.42;;;10.50;99.90;;;;;;4423697;32;20160;-66
2024/03/21 07:36:35;;;;;;;8.70;1.37;;;10.40;99.90;;;;;;4424024;32;20120;-66
2024/03/21 07:39:00;;;;;;;18.58;1.37;;;10.40;99.90;;;;;;4425471;32;20083;-64
2024/03/21 07:41:27;;;;;;;4.65;2.47;;;10.50;99.90;;;;;;4416606;32;20574;-64
2024/03/21 07:43:52;;;;;;;0.62;0.62;;;10.40;99.90;;;;;;4408115;32;20089;-64
2024/03/21 07:46:21;;;;;;;1.33;0.93;;;10.40;99.90;;;;;;4413384;32;20187;-64
2024/03/21 07:48:47;;;;;;;3.80;0.70;;;10.50;99.90;;;;;;4404644;32;20120;-65
2024/03/21 07:51:13;;;;;;;0.93;0.85;;;10.40;99.90;;;;;;4409682;32;20772;-65
2024/03/21 07:53:38;;;;;;;0.88;0.88;;;10.50;99.90;;;;;;4406208;32;20097;-65
2024/03/21 07:56:04;;;;;;;4.75;2.08;;;10.40;99.90;;;;;;4414751;32;20154;-63
2024/03/21 07:58:30;;;;;;;1.48;1.15;;;10.40;99.90;;;;;;4412676;32;20740;-65
2024/03/21 08:00:55;;;;;;;4.03;1.77;;;10.50;99.90;;;;;;4399787;32;20185;-65
2024/03/21 08:03:21;;;;;;;1.45;1.23;;;10.50;99.90;;;;;;4411499;32;20619;-65
2024/03/21 08:05:46;;;;;;;4.87;2.03;;;10.50;99.90;;;;;;4401313;32;20712;-65
2024/03/21 08:08:12;;;;;;;3.15;1.30;;;10.40;99.90;;;;;;4416440;32;20105;-65
2024/03/21 08:10:37;;;;;;;3.58;1.73;;;10.40;99.90;;;;;;4416569;32;20678;-65
2024/03/21 08:13:03;;;;;;;1.20;1.10;;;10.30;99.90;;;;;;4423984;32;20232;-65
2024/03/21 08:15:28;;;;;;;2.87;1.67;;;10.40;99.90;;;;;;4422146;32;20163;-64
2024/03/21 08:17:54;;;;;;;1.10;1.00;;;10.40;99.90;;;;;;4413688;32;20544;-64
2024/03/21 08:20:19;;;;;;;0.88;0.88;;;10.50;99.90;;;;;;4421651;32;20085;-64
2024/03/21 08:22:45;;;;;;;4.35;1.98;;;10.50;99.90;;;;;;4416442;32;20089;-65
2024/03/21 08:25:11;;;;;;;1.40;0.90;;;10.50;99.90;;;;;;4421342;32;20206;-65
2024/03/21 08:27:37;;;;;;;1.17;0.93;;;10.50;99.90;;;;;;4424357;32;21487;-64
2024/03/21 08:30:05;;;;;;;5.78;1.98;;;10.60;99.90;;;;;;4414877;32;20092;-64
2024/03/21 08:32:30;;;;;;;2.42;1.37;;;10.50;99.90;;;;;;4416083;32;20517;-64
2024/03/21 08:34:56;;;;;;;1.45;1.23;;;10.60;99.90;;;;;;4415002;32;20100;-64
2024/03/21 08:37:22;;;;;;;2.83;1.20;;;10.50;99.90;;;;;;4417273;32;20143;-64
2024/03/21 08:39:48;;;;;;;1.30;0.93;;;10.50;99.90;;;;;;4427996;32;20147;-64
2024/03/21 08:42:14;;;;;;;5.68;2.35;;;10.50;99.90;;;;;;4419350;32;20730;-64
2024/03/21 08:44:39;;;;;;;3.10;1.40;;;10.50;99.90;;;;;;4430319;32;20099;-64
2024/03/21 08:47:05;;;;;;;9.88;3.47;;;10.50;99.90;;;;;;4420030;32;20080;-65
2024/03/21 08:49:30;;;;;;;0.80;0.80;;;10.50;99.90;;;;;;4412191;32;20493;-64
2024/03/21 08:51:57;;;;;;;3.30;0.80;;;10.40;99.90;;;;;;4411781;32;20092;-63
2024/03/21 08:54:24;;;;;;;2.90;0.93;;;10.40;99.90;;;;;;4402178;32;20173;-64
2024/03/21 08:56:49;;;;;;;5.10;1.80;;;10.50;99.90;;;;;;4406009;32;20779;-64
2024/03/21 08:59:15;;;;;;;1.45;1.35;;;10.50;99.90;;;;;;4400419;32;20187;-64
2024/03/21 09:01:40;;;;;;;6.47;1.23;;;10.60;99.90;;;;;;4419358;32;20084;-63
2024/03/21 09:04:06;;;;;;;0.82;0.82;;;10.70;99.90;;;;;;4421945;32;20088;-63
2024/03/21 09:06:31;;;;;;;2.65;1.65;;;10.60;99.90;;;;;;4416585;32;20097;-65
2024/03/21 09:08:58;;;;;;;3.45;1.60;;;10.60;99.90;;;;;;4405808;32;20582;-65
2024/03/21 09:11:23;;;;;;;1.50;1.00;;;10.60;99.90;;;;;;4406779;32;20780;-67
2024/03/21 09:13:49;;;;;;;1.45;1.10;;;10.60;99.90;;;;;;4400802;32;20106;-66
2024/03/21 09:16:14;;;;;;;1.20;0.98;;;10.60;99.90;;;;;;4413579;32;20085;-66
2024/03/21 09:18:43;;;;;;;1.08;1.02;;;10.60;99.90;;;;;;4394657;32;20767;-66
2024/03/21 09:21:12;;;;;;;1.12;1.05;;;10.70;99.90;;;;;;4408969;32;20135;-66
2024/03/21 09:23:38;;;;;;;1.33;0.85;;;10.60;99.90;;;;;;4411965;32;20083;-66
2024/03/21 09:26:04;;;;;;;3.47;1.25;;;10.70;99.90;;;;;;4408530;32;20080;-66
2024/03/21 09:28:30;;;;;;;7.05;1.17;;;10.60;99.90;;;;;;4395197;32;20171;-65
2024/03/21 09:30:56;;;;;;;8.00;2.05;;;10.60;99.90;;;;;;4391611;32;20096;-65
2024/03/21 09:33:21;;;;;;;3.70;1.73;;;10.60;99.90;;;;;;4399858;32;20124;-66
2024/03/21 09:36:05;;;;;;;1.95;1.30;;;10.60;99.90;;;;;;4402594;32;20670;-65
2024/03/21 09:38:31;;;;;;;9.25;1.87;;;10.60;99.90;;;;;;4400190;32;20097;-67
2024/03/21 09:40:58;;;;;;;4.20;2.35;;;10.60;99.90;;;;;;4399933;32;20100;-65
2024/03/21 09:43:24;;;;;;;1.52;1.35;;;10.70;99.90;;;;;;4405723;32;20100;-66
2024/03/21 09:45:53;;;;;;;0.82;0.82;;;10.80;99.90;;;;;;4396756;32;20116;-65
2024/03/21 09:48:20;;;;;;;1.33;1.23;;;10.80;99.90;;;;;;4400473;32;20103;-66
2024/03/21 09:50:47;;;;;;;0.77;0.77;;;10.90;99.90;;;;;;4409349;32;20595;-64
2024/03/21 09:53:16;;;;;;;0.82;0.82;;;10.90;99.90;;;;;;4410562;32;20563;-64
2024/03/21 09:55:43;;;;;;;2.37;1.08;;;11.10;99.90;;;;;;4402020;32;20887;-64
2024/03/21 09:58:12;;;;;;;2.58;1.20;;;11.20;99.90;;;;;;4407097;32;20868;-64
2024/03/21 10:00:39;;;;;;;2.92;1.02;;;11.40;99.90;;;;;;4403393;32;20206;-64
2024/03/21 10:03:05;;;;;;;0.50;0.50;;;11.60;99.90;;;;;;4404863;32;20527;-66
2024/03/21 10:05:31;;;;;;;2.03;0.90;;;11.70;99.90;;;;;;4413949;32;20328;-65
2024/03/21 10:07:56;;;;;;;0.57;0.50;;;11.80;99.90;;;;;;4413535;32;20530;-65
2024/03/21 10:10:22;;;;;;;3.83;0.98;;;11.90;99.90;;;;;;4411787;32;20092;-66
2024/03/21 10:12:49;;;;;;;1.33;1.23;;;12.10;99.90;;;;;;4411934;32;20183;-66
2024/03/21 10:15:14;;;;;;;0.73;0.73;;;12.30;99.90;;;;;;4413939;32;20088;-65
2024/03/21 10:17:41;;;;;;;1.20;0.62;;;12.60;99.90;;;;;;4410458;32;20501;-65
2024/03/21 10:20:09;;;;;;;0.77;0.77;;;12.80;99.90;;;;;;4394907;32;20121;-65
2024/03/21 10:22:35;;;;;;;0.70;0.70;;;13.00;99.90;;;;;;4384990;32;20158;-66
2024/03/21 10:25:04;;;;;;;0.70;0.70;;;13.20;99.90;;;;;;4415572;32;20583;-65
2024/03/21 10:27:30;;;;;;;1.60;1.08;;;13.30;99.90;;;;;;4392465;32;20094;-66
2024/03/21 10:29:58;;;;;;;1.45;0.62;;;13.60;99.90;;;;;;4389956;32;20085;-65
2024/03/21 10:32:25;;;;;;;0.32;0.32;;;13.50;99.90;;;;;;4403736;32;20085;-65
2024/03/21 10:34:52;;;;;;;1.92;1.27;;;13.70;99.90;;;;;;4392285;32;20121;-65
2024/03/21 10:37:19;;;;;;;0.80;0.80;;;13.70;99.90;;;;;;4378929;32;20562;-66
2024/03/21 10:39:46;;;;;;;1.05;0.82;;;13.90;99.90;;;;;;4395601;32;20483;-66
2024/03/21 10:42:21;;;;;;;0.73;0.50;;;14.30;99.90;;;;;;4408406;32;20080;-66
2024/03/21 10:44:48;;;;;;;0.55;0.55;;;14.40;99.90;;;;;;4411335;32;20087;-66
2024/03/21 10:47:15;;;;;;;0.60;0.60;;;14.50;99.90;;;;;;4407083;32;20792;-66
2024/03/21 10:49:41;;;;;;;1.55;1.00;;;14.80;99.90;;;;;;4383634;32;20962;-67
2024/03/21 10:52:12;;;;;;;3.10;0.90;;;15.10;99.90;;;;;;4396079;32;20108;-66
2024/03/21 10:54:38;;;;;;;0.93;0.93;;;15.20;99.90;;;;;;4387697;32;20172;-65
2024/03/21 10:57:15;;;;;;;0.45;0.45;;;15.20;99.90;;;;;;4388310;32;21773;-63
2024/03/21 10:59:42;;;;;;;0.45;0.45;;;14.80;99.90;;;;;;4380886;32;20979;-65
2024/03/21 11:02:13;;;;;;;0.52;0.52;;;14.90;99.90;;;;;;4381568;32;20472;-65
2024/03/21 11:04:42;;;;;;;0.50;0.50;;;15.10;99.90;;;;;;4373552;32;20085;-64
2024/03/21 11:07:13;;;;;;;0.57;0.57;;;15.40;99.90;;;;;;4385589;32;21283;-66
2024/03/21 11:09:42;;;;;;;0.57;0.57;;;15.50;99.90;;;;;;4390365;32;20429;-64
2024/03/21 11:12:08;;;;;;;2.62;1.52;;;15.70;99.90;;;;;;4385966;32;20323;-65
2024/03/21 11:14:34;;;;;;;1.12;0.50;;;15.80;99.90;;;;;;4389750;32;20114;-66
2024/03/21 11:17:00;;;;;;;0.50;0.50;;;15.80;99.90;;;;;;4399579;32;20416;-65
2024/03/21 11:19:26;;;;;;;0.45;0.45;;;16.10;99.90;;;;;;4402259;32;21619;-65
2024/03/21 11:21:51;;;;;;;0.40;0.40;;;16.40;99.90;;;;;;4403571;32;20097;-67
2024/03/21 11:24:17;;;;;;;0.47;0.47;;;16.70;99.90;;;;;;4408867;32;20171;-67
2024/03/21 11:26:42;;;;;;;0.50;0.50;;;16.90;99.90;;;;;;4407367;32;20197;-64
2024/03/21 11:29:12;;;;;;;1.10;0.80;;;17.10;99.90;;;;;;4405344;32;20080;-64
2024/03/21 11:31:41;;;;;;;0.50;0.50;;;17.20;99.90;;;;;;4396354;32;20500;-66
2024/03/21 11:34:08;;;;;;;0.40;0.40;;;16.70;99.90;;;;;;4417195;32;20195;-67
2024/03/21 11:36:34;;;;;;;0.50;0.50;;;16.70;99.90;;;;;;4408935;32;20096;-67
2024/03/21 11:39:00;;;;;;;1.23;0.65;;;17.20;99.90;;;;;;4403741;32;20460;-66
2024/03/21 11:41:26;;;;;;;0.45;0.45;;;17.60;99.90;;;;;;4399409;32;20757;-66
2024/03/21 11:43:53;;;;;;;0.55;0.55;;;17.60;99.90;;;;;;4407665;32;20513;-68
2024/03/21 11:46:20;;;;;;;0.30;0.30;;;17.90;99.90;;;;;;4408738;32;21162;-67
2024/03/21 11:49:00;;;;;;;0.30;0.30;;;17.80;99.90;;;;;;4392854;32;20094;-67
2024/03/21 11:51:26;;;;;;;0.50;0.50;;;17.60;99.90;;;;;;4407421;32;21114;-66
2024/03/21 11:53:51;;;;;;;0.30;0.30;;;17.40;99.90;;;;;;4405996;32;150067;-67
2024/03/21 11:56:17;;;;;;;0.47;0.47;;;17.00;99.90;;;;;;4415410;32;20529;-66
2024/03/21 11:58:43;;;;;;;0.30;0.30;;;16.60;99.90;;;;;;4413109;32;20081;-66
2024/03/21 12:01:09;;;;;;;0.37;0.37;;;16.40;99.90;;;;;;4421363;32;20113;-67
2024/03/21 12:03:34;;;;;;;1.65;0.40;;;16.20;99.90;;;;;;4423067;32;20718;-68
2024/03/21 12:06:00;;;;;;;0.40;0.40;;;16.40;99.90;;;;;;4416669;32;20113;-66
2024/03/21 12:08:25;;;;;;;0.30;0.30;;;16.80;99.90;;;;;;4422194;32;20211;-68
2024/03/21 12:10:51;;;;;;;0.40;0.40;;;17.00;99.90;;;;;;4409682;32;20678;-67
2024/03/21 12:13:18;;;;;;;0.60;0.60;;;17.50;99.90;;;;;;4416191;32;20113;-67
2024/03/21 12:15:44;;;;;;;0.35;0.35;;;17.60;99.90;;;;;;4417822;32;20370;-68
2024/03/21 12:18:09;;;;;;;0.30;0.30;;;17.50;99.90;;;;;;4419013;32;20069;-66
2024/03/21 12:20:35;;;;;;;0.30;0.30;;;17.10;99.90;;;;;;4421621;32;20150;-67
2024/03/21 12:23:00;;;;;;;0.30;0.30;;;17.40;99.90;;;;;;4428378;32;20076;-68
2024/03/21 12:25:26;;;;;;;1.00;0.93;;;18.20;99.90;;;;;;4424041;32;20711;-66
2024/03/21 12:27:51;;;;;;;0.95;0.50;;;18.50;99.90;;;;;;4414095;32;20068;-68
2024/03/21 12:30:17;;;;;;;0.50;0.50;;;18.00;99.90;;;;;;4420099;32;20076;-65
2024/03/21 12:32:42;;;;;;;0.40;0.40;;;17.80;99.90;;;;;;4411934;32;20736;-66
2024/03/21 12:35:08;;;;;;;0.70;0.50;;;17.50;99.90;;;;;;4418655;32;20085;-67
2024/03/21 12:37:34;;;;;;;0.80;0.77;;;17.30;99.90;;;;;;4424351;32;20088;-66
2024/03/21 12:40:00;;;;;;;0.45;0.45;;;16.80;99.90;;;;;;4422334;32;20101;-65
2024/03/21 12:42:25;;;;;;;0.47;0.47;;;16.60;99.90;;;;;;4420268;32;20076;-65